createdAt,value
2022-12-28T00:01:15.222Z,6.22
2022-12-28T00:03:43.849Z,6.50
2022-12-28T00:06:12.869Z,6.95
2022-12-28T00:13:16.739Z,5.38
2022-12-28T00:15:45.032Z,7.10
2022-12-28T00:18:13.606Z,7.55
2022-12-28T00:20:42.037Z,7.45
2022-12-28T00:23:10.875Z,8.10
2022-12-28T00:25:39.108Z,7.97
2022-12-28T00:28:07.830Z,7.80
2022-12-28T00:30:36.169Z,6.55
2022-12-28T00:33:04.714Z,7.70
2022-12-28T00:35:40.675Z,7.80
2022-12-28T00:38:09.530Z,7.53
2022-12-28T00:40:37.753Z,8.20
2022-12-28T00:43:06.422Z,8.35
2022-12-28T00:45:34.778Z,8.23
2022-12-28T00:48:03.724Z,9.93
2022-12-28T00:51:08.525Z,9.93
2022-12-28T00:53:37.271Z,8.40
2022-12-28T00:56:17.975Z,8.15
2022-12-28T00:58:47.571Z,8.45
2022-12-28T01:04:27.165Z,8.27
2022-12-28T01:06:55.441Z,8.43
2022-12-28T01:09:32.768Z,8.65
2022-12-28T01:12:02.344Z,9.35
2022-12-28T01:14:55.653Z,8.48
2022-12-28T01:17:25.916Z,8.70
2022-12-28T01:19:54.669Z,9.25
2022-12-28T01:22:23.196Z,9.43
2022-12-28T01:24:52.019Z,9.30
2022-12-28T01:27:27.840Z,9.05
2022-12-28T01:29:56.838Z,8.70
2022-12-28T01:32:25.105Z,9.23
2022-12-28T01:34:53.718Z,8.93
2022-12-28T01:37:22.028Z,9.90
2022-12-28T01:39:50.640Z,10.25
2022-12-28T01:42:20.518Z,9.48
2022-12-28T01:44:51.070Z,10.85
2022-12-28T01:47:31.695Z,10.70
2022-12-28T01:50:05.783Z,10.65
2022-12-28T01:52:41.856Z,10.65
2022-12-28T01:55:24.885Z,10.60
2022-12-28T01:58:08.546Z,9.93
2022-12-28T02:00:37.232Z,9.82
2022-12-28T02:03:11.132Z,9.50
2022-12-28T02:05:49.712Z,9.48
2022-12-28T02:08:41.413Z,10.40
2022-12-28T02:11:14.429Z,9.50
2022-12-28T02:13:44.943Z,10.70
2022-12-28T02:16:14.722Z,10.73
2022-12-28T02:18:46.307Z,10.70
2022-12-28T02:21:36.527Z,10.70
2022-12-28T02:24:21.641Z,10.90
2022-12-28T02:27:29.852Z,10.30
2022-12-28T02:30:07.756Z,10.35
2022-12-28T02:32:48.495Z,11.05
2022-12-28T02:35:29.006Z,10.70
2022-12-28T02:38:16.043Z,10.70
2022-12-28T02:40:53.750Z,9.82
2022-12-28T02:43:25.741Z,10.18
2022-12-28T02:46:13.068Z,10.43
2022-12-28T02:49:04.414Z,10.55
2022-12-28T02:51:46.026Z,10.45
2022-12-28T02:54:58.407Z,10.75
2022-12-28T02:57:39.218Z,10.75
2022-12-28T03:00:15.571Z,11.27
2022-12-28T03:02:59.854Z,11.23
2022-12-28T03:06:19.381Z,10.20
2022-12-28T03:11:39.007Z,10.15
2022-12-28T03:14:14.902Z,10.85
2022-12-28T03:17:05.739Z,11.65
2022-12-28T03:20:00.608Z,10.80
2022-12-28T03:22:50.857Z,11.50
2022-12-28T03:25:42.376Z,12.50
2022-12-28T03:29:00.238Z,11.95
2022-12-28T03:31:30.642Z,12.25
2022-12-28T03:34:07.236Z,11.18
2022-12-28T03:37:02.916Z,11.48
2022-12-28T03:39:38.261Z,11.90
2022-12-28T03:42:42.954Z,11.88
2022-12-28T03:45:45.618Z,11.82
2022-12-28T03:48:18.027Z,11.65
2022-12-28T03:50:49.801Z,11.83
2022-12-28T03:53:36.552Z,11.25
2022-12-28T03:56:10.022Z,11.85
